Time;durP1;ratioP1;P1;durP2;ratioP2;P2;SDS_P1;SDS_P2;PMS_P1;PMS_P2;Temp;Humidity;BMP_temperature;BMP_pressure;BME280_temperature;BME280_humidity;BME280_pressure;Samples;Min_cycle;Max_cycle;Signal;HPM_P1;HPM_P2
2023/01/01 00:00:40;;;;;;;19.65;9.35;;;13.80;99.90;;;;;;5049968;28;20033;-82
2023/01/01 00:03:06;;;;;;;19.98;8.98;;;13.80;99.90;;;;;;5030920;28;20095;-83
2023/01/01 00:05:32;;;;;;;18.67;7.93;;;13.80;99.90;;;;;;5045684;28;20041;-83
2023/01/01 00:07:57;;;;;;;18.15;8.43;;;13.80;99.90;;;;;;5035662;28;20490;-84
2023/01/01 00:10:29;;;;;;;22.52;9.95;;;13.90;99.90;;;;;;5049200;28;20044;-85
2023/01/01 00:12:56;;;;;;;19.98;10.10;;;13.80;99.90;;;;;;5047626;28;20041;-83
2023/01/01 00:15:22;;;;;;;23.48;10.95;;;13.80;99.90;;;;;;5051982;28;20025;-83
2023/01/01 00:17:47;;;;;;;22.00;9.73;;;13.70;99.90;;;;;;5051431;28;20106;-85
2023/01/01 00:20:13;;;;;;;21.15;9.75;;;13.70;99.90;;;;;;5050496;28;20090;-82
2023/01/01 00:22:38;;;;;;;23.30;11.95;;;13.60;99.90;;;;;;5047995;28;20040;-83
2023/01/01 00:25:05;;;;;;;22.05;9.98;;;13.60;99.90;;;;;;5048289;28;20036;-84
2023/01/01 00:27:30;;;;;;;22.20;10.57;;;13.50;99.90;;;;;;5041736;28;20422;-83
2023/01/01 00:29:56;;;;;;;18.80;11.40;;;13.50;99.90;;;;;;5049944;28;20044;-85
2023/01/01 00:32:22;;;;;;;20.33;9.07;;;13.50;99.90;;;;;;5050286;28;20056;-85
2023/01/01 00:34:47;;;;;;;18.52;9.90;;;13.50;99.90;;;;;;5046786;28;20048;-86
2023/01/01 00:37:14;;;;;;;22.50;10.35;;;13.50;99.90;;;;;;5034462;28;20049;-83
2023/01/01 00:39:39;;;;;;;20.70;11.00;;;13.50;99.90;;;;;;5033571;28;20083;-83
2023/01/01 00:42:05;;;;;;;22.23;10.75;;;13.50;99.90;;;;;;5033278;28;20429;-84
2023/01/01 00:44:31;;;;;;;19.17;11.77;;;13.50;99.90;;;;;;5050014;28;20033;-83
2023/01/01 00:46:56;;;;;;;22.65;10.98;;;13.50;99.90;;;;;;5047104;28;20574;-84
2023/01/01 00:49:22;;;;;;;22.60;11.20;;;13.40;99.90;;;;;;5049809;28;20121;-83
2023/01/01 00:51:47;;;;;;;22.60;12.52;;;13.40;99.90;;;;;;5049194;28;20385;-85
2023/01/01 00:54:13;;;;;;;19.45;11.85;;;13.40;99.90;;;;;;5049832;28;20477;-86
2023/01/01 00:56:38;;;;;;;21.55;11.80;;;13.40;99.90;;;;;;5049926;28;20072;-84
2023/01/01 00:59:04;;;;;;;22.70;12.88;;;13.30;99.90;;;;;;5023628;28;20060;-84
2023/01/01 01:01:30;;;;;;;22.42;12.95;;;13.30;99.90;;;;;;5050594;28;20094;-83
2023/01/01 01:03:55;;;;;;;23.20;14.95;;;13.30;99.90;;;;;;5045934;28;20029;-84
2023/01/01 01:06:21;;;;;;;26.75;15.32;;;13.30;99.90;;;;;;5049913;28;20519;-82
2023/01/01 01:08:47;;;;;;;28.02;15.75;;;13.30;99.90;;;;;;5051012;28;20552;-85
2023/01/01 01:11:23;;;;;;;25.80;16.23;;;13.40;99.90;;;;;;5048350;28;20041;-81
2023/01/01 01:13:52;;;;;;;28.90;16.38;;;13.40;99.90;;;;;;5048678;28;20171;-84
2023/01/01 01:16:20;;;;;;;27.42;16.95;;;13.40;99.90;;;;;;5050031;28;20114;-83
2023/01/01 01:18:48;;;;;;;28.02;16.52;;;13.30;99.90;;;;;;5049121;28;20037;-84
2023/01/01 01:21:15;;;;;;;38.38;16.83;;;13.30;99.90;;;;;;5033015;28;20064;-83
2023/01/01 01:23:41;;;;;;;28.85;17.88;;;13.30;99.90;;;;;;5034182;28;20120;-84
2023/01/01 01:26:13;;;;;;;36.25;19.90;;;13.30;99.90;;;;;;5050480;28;20056;-83
2023/01/01 01:28:39;;;;;;;28.55;19.02;;;13.20;99.90;;;;;;5047509;28;20106;-82
2023/01/01 01:31:06;;;;;;;30.63;19.45;;;13.20;99.90;;;;;;5051766;28;20124;-84
2023/01/01 01:33:32;;;;;;;30.77;19.85;;;13.10;99.90;;;;;;5041529;28;20124;-84
2023/01/01 01:35:58;;;;;;;33.92;20.80;;;13.10;99.90;;;;;;5050813;28;20064;-83
2023/01/01 01:38:23;;;;;;;34.70;22.08;;;13.00;99.90;;;;;;5042968;28;20095;-83
2023/01/01 01:40:49;;;;;;;32.97;21.30;;;13.00;99.90;;;;;;5050347;28;20082;-83
2023/01/01 01:43:23;;;;;;;35.47;21.52;;;13.00;99.90;;;;;;5051028;28;20033;-83
2023/01/01 01:45:53;;;;;;;33.97;22.95;;;13.00;99.90;;;;;;5036537;28;20040;-83
2023/01/01 01:48:18;;;;;;;34.90;23.15;;;12.90;99.90;;;;;;5046503;28;20048;-83
2023/01/01 01:50:47;;;;;;;37.55;25.10;;;12.90;99.90;;;;;;5052620;28;20037;-84
2023/01/01 01:53:23;;;;;;;38.97;26.30;;;12.90;99.90;;;;;;5036383;28;20048;-83
2023/01/01 01:55:59;;;;;;;40.60;27.25;;;12.80;99.90;;;;;;5037927;28;20041;-84
2023/01/01 01:58:27;;;;;;;42.10;28.60;;;12.70;99.90;;;;;;5035122;28;20141;-83
2023/01/01 02:00:53;;;;;;;45.83;30.33;;;12.60;99.90;;;;;;5050042;28;20053;-84
2023/01/01 02:03:30;;;;;;;42.53;30.45;;;12.50;99.90;;;;;;5050223;28;20041;-84
2023/01/01 02:05:57;;;;;;;45.80;29.73;;;12.50;99.90;;;;;;5052628;28;20060;-84
2023/01/01 02:08:24;;;;;;;47.92;31.05;;;12.50;99.90;;;;;;5036040;28;20045;-84
2023/01/01 02:10:49;;;;;;;42.40;30.10;;;12.40;99.90;;;;;;5052678;28;20510;-83
2023/01/01 02:13:15;;;;;;;46.25;31.02;;;12.50;99.90;;;;;;5035433;28;20037;-83
2023/01/01 02:15:51;;;;;;;46.83;32.95;;;12.40;99.90;;;;;;5051005;28;20116;-84
2023/01/01 02:18:24;;;;;;;50.65;33.60;;;12.40;99.90;;;;;;5036347;28;20049;-83
2023/01/01 02:20:59;;;;;;;46.47;31.08;;;12.40;99.90;;;;;;5053354;28;20049;-84
2023/01/01 02:23:58;;;;;;;48.53;31.70;;;12.30;99.90;;;;;;5023240;28;20438;-84
2023/01/01 02:26:37;;;;;;;48.22;31.17;;;12.30;99.90;;;;;;5050559;28;20080;-84
2023/01/01 02:29:27;;;;;;;45.40;29.92;;;12.30;99.90;;;;;;5028464;28;20029;-84
2023/01/01 02:32:09;;;;;;;44.08;28.95;;;12.30;99.90;;;;;;5047630;28;20041;-84
2023/01/01 02:34:39;;;;;;;42.42;27.27;;;12.40;99.90;;;;;;5046462;28;20086;-83
2023/01/01 02:37:08;;;;;;;38.75;26.63;;;12.40;99.90;;;;;;5052088;28;20098;-84
2023/01/01 02:39:38;;;;;;;37.60;24.38;;;12.40;99.90;;;;;;5047260;28;20153;-83
2023/01/01 02:42:06;;;;;;;39.47;23.98;;;12.40;99.90;;;;;;5051110;28;20076;-84
2023/01/01 02:44:36;;;;;;;39.90;22.75;;;12.40;99.90;;;;;;5034506;28;20059;-83
2023/01/01 02:47:13;;;;;;;32.35;20.83;;;12.50;99.90;;;;;;5048472;28;20108;-85
2023/01/01 02:49:53;;;;;;;32.92;20.88;;;12.50;99.90;;;;;;5050550;28;20374;-84
2023/01/01 02:52:51;;;;;;;29.30;20.65;;;12.50;99.90;;;;;;5050490;28;20049;-82
2023/01/01 02:55:42;;;;;;;30.02;19.40;;;12.50;99.90;;;;;;5022105;28;20044;-84
2023/01/01 03:01:28;;;;;;;29.83;17.27;;;12.50;99.90;;;;;;5051105;28;20453;-84
2023/01/01 03:04:28;;;;;;;27.70;16.48;;;12.40;99.90;;;;;;5035129;28;20053;-83
2023/01/01 03:07:18;;;;;;;25.45;16.25;;;12.40;99.90;;;;;;5048109;28;20048;-82
2023/01/01 03:09:55;;;;;;;25.50;15.25;;;12.50;99.90;;;;;;5049579;28;20060;-83
2023/01/01 03:12:47;;;;;;;28.48;15.27;;;12.50;99.90;;;;;;5036267;28;20398;-81
2023/01/01 03:15:51;;;;;;;27.08;14.98;;;12.40;99.90;;;;;;5043735;28;20107;-83
2023/01/01 03:18:45;;;;;;;28.25;15.80;;;12.30;99.90;;;;;;5044055;28;20507;-84
2023/01/01 03:21:15;;;;;;;33.60;16.10;;;12.20;99.90;;;;;;5030673;28;20063;-83
2023/01/01 03:23:46;;;;;;;27.20;16.90;;;12.10;99.90;;;;;;5047441;28;20037;-84
2023/01/01 03:26:14;;;;;;;28.38;17.23;;;12.00;99.90;;;;;;5048564;28;20079;-83
2023/01/01 03:28:49;;;;;;;29.33;16.88;;;11.90;99.90;;;;;;5050096;28;20048;-85
2023/01/01 03:31:19;;;;;;;29.33;16.25;;;11.90;99.90;;;;;;5049847;28;20052;-84
2023/01/01 03:34:12;;;;;;;28.00;16.88;;;11.80;99.90;;;;;;5050273;28;20037;-85
2023/01/01 03:36:43;;;;;;;31.38;16.98;;;11.70;99.90;;;;;;5025348;28;20194;-84
2023/01/01 03:39:19;;;;;;;31.73;16.63;;;11.60;99.90;;;;;;5050696;28;20466;-85
2023/01/01 03:41:50;;;;;;;30.95;16.10;;;11.60;99.90;;;;;;5033580;28;20037;-82
2023/01/01 03:44:20;;;;;;;28.85;16.45;;;11.50;99.90;;;;;;5049992;28;20037;-84
2023/01/01 03:46:46;;;;;;;29.20;16.63;;;11.50;99.90;;;;;;5047736;28;20033;-85
2023/01/01 03:49:13;;;;;;;28.33;16.48;;;11.40;99.90;;;;;;5033192;28;20123;-84
2023/01/01 03:51:55;;;;;;;28.50;16.88;;;11.40;99.90;;;;;;5050004;28;20044;-83
2023/01/01 03:54:56;;;;;;;28.35;16.02;;;11.30;99.90;;;;;;5035024;28;20041;-83
2023/01/01 03:57:39;;;;;;;26.05;12.52;;;11.20;99.90;;;;;;5009796;28;20046;-83
2023/01/01 04:00:15;;;;;;;24.95;12.27;;;11.30;99.90;;;;;;5060119;28;20056;-84
2023/01/01 04:02:56;;;;;;;19.10;9.73;;;11.30;99.90;;;;;;5050308;28;20037;-83
2023/01/01 04:05:23;;;;;;;17.63;8.18;;;11.30;99.90;;;;;;5050257;28;20047;-85
2023/01/01 04:07:50;;;;;;;12.63;7.00;;;11.30;99.90;;;;;;5032982;28;20056;-84
2023/01/01 04:10:16;;;;;;;11.82;5.80;;;11.40;99.90;;;;;;5031545;28;20048;-85
2023/01/01 04:12:50;;;;;;;16.85;5.90;;;11.40;99.90;;;;;;5033815;28;20072;-85
2023/01/01 04:15:16;;;;;;;;;;;11.50;99.90;;;;;;5050184;28;20069;-85
2023/01/01 04:17:42;;;;;;;14.48;5.22;;;11.50;99.90;;;;;;5049460;28;19923;-85
2023/01/01 04:20:08;;;;;;;17.98;5.07;;;11.60;99.90;;;;;;5045175;28;20041;-85
2023/01/01 04:22:34;;;;;;;17.30;5.35;;;11.60;99.90;;;;;;5049709;28;20040;-85
2023/01/01 04:25:00;;;;;;;16.42;5.43;;;11.60;99.90;;;;;;5050154;28;20028;-85
2023/01/01 04:27:26;;;;;;;12.88;4.80;;;11.60;99.90;;;;;;5049401;28;20480;-86
2023/01/01 04:29:51;;;;;;;12.07;4.72;;;11.60;99.90;;;;;;5049658;28;20068;-83
2023/01/01 04:32:17;;;;;;;14.40;4.93;;;11.60;99.90;;;;;;5050764;28;20045;-84
2023/01/01 04:34:42;;;;;;;18.70;4.95;;;11.70;99.90;;;;;;5050193;28;20154;-84
2023/01/01 04:37:08;;;;;;;16.60;5.00;;;11.70;99.90;;;;;;5048544;28;20049;-85
2023/01/01 04:39:33;;;;;;;16.50;6.05;;;11.60;99.90;;;;;;5045036;28;20037;-85
2023/01/01 04:41:59;;;;;;;19.55;6.53;;;11.60;99.90;;;;;;5044200;28;20042;-84
2023/01/01 04:44:24;;;;;;;18.52;6.50;;;11.60;99.90;;;;;;5030684;28;20467;-84
2023/01/01 04:46:50;;;;;;;18.42;6.72;;;11.60;99.90;;;;;;5032219;28;20570;-85
2023/01/01 04:49:15;;;;;;;17.73;6.30;;;11.60;99.90;;;;;;5049570;28;20033;-84
2023/01/01 04:51:41;;;;;;;15.10;5.53;;;11.60;99.90;;;;;;5049315;28;20032;-85
2023/01/01 04:54:06;;;;;;;18.45;6.28;;;11.60;99.90;;;;;;5049165;28;20136;-85
2023/01/01 04:56:32;;;;;;;13.68;5.45;;;11.60;99.90;;;;;;5050424;28;20518;-84
2023/01/01 04:58:58;;;;;;;12.57;4.97;;;11.60;99.90;;;;;;5041792;28;20049;-85
2023/01/01 05:01:25;;;;;;;16.88;4.97;;;11.60;99.90;;;;;;5049466;28;20041;-86
2023/01/01 05:03:51;;;;;;;11.95;4.40;;;11.50;99.90;;;;;;5032602;28;20037;-86
2023/01/01 05:06:17;;;;;;;9.93;3.80;;;11.50;99.90;;;;;;5047330;28;20427;-84
2023/01/01 05:08:45;;;;;;;9.20;4.00;;;11.50;99.90;;;;;;5049109;28;20549;-85
2023/01/01 05:11:14;;;;;;;11.35;3.63;;;11.60;99.90;;;;;;5050094;28;20130;-85
2023/01/01 05:13:42;;;;;;;14.43;3.67;;;11.60;99.90;;;;;;5048561;28;20058;-85
2023/01/01 05:16:11;;;;;;;14.60;3.83;;;11.60;99.90;;;;;;5049173;28;20103;-85
2023/01/01 05:18:37;;;;;;;16.15;3.65;;;11.50;99.90;;;;;;5050943;28;20036;-85
2023/01/01 05:21:05;;;;;;;11.55;3.60;;;11.50;99.90;;;;;;5053355;28;20037;-85
2023/01/01 05:23:31;;;;;;;10.43;3.38;;;11.60;99.90;;;;;;5045184;28;20094;-84
2023/01/01 05:25:57;;;;;;;11.48;3.67;;;11.60;99.90;;;;;;5050720;28;20037;-85
2023/01/01 05:28:23;;;;;;;12.88;3.70;;;11.60;99.90;;;;;;5021314;28;20037;-85
2023/01/01 05:30:52;;;;;;;11.90;3.67;;;11.60;99.90;;;;;;5052745;28;20038;-85
2023/01/01 05:33:19;;;;;;;10.13;3.00;;;11.60;99.90;;;;;;5053454;28;20064;-85
2023/01/01 05:35:45;;;;;;;9.57;3.30;;;11.60;99.90;;;;;;5036425;28;20037;-85
2023/01/01 05:38:10;;;;;;;9.25;3.15;;;11.70;99.90;;;;;;5052496;28;20043;-84
2023/01/01 05:40:39;;;;;;;7.50;2.60;;;11.70;99.90;;;;;;5052871;28;20175;-84
2023/01/01 05:43:06;;;;;;;10.80;3.20;;;11.70;99.90;;;;;;5052142;28;20033;-85
2023/01/01 05:45:32;;;;;;;9.13;3.65;;;11.70;99.90;;;;;;5037074;28;20044;-85
2023/01/01 05:47:57;;;;;;;11.32;2.85;;;11.70;99.90;;;;;;5035072;28;20037;-85
2023/01/01 05:50:23;;;;;;;10.00;2.50;;;11.80;99.90;;;;;;5051703;28;20083;-84
2023/01/01 05:52:48;;;;;;;8.20;2.65;;;11.80;99.90;;;;;;5052541;28;20060;-85
2023/01/01 05:55:14;;;;;;;9.73;2.25;;;11.80;99.90;;;;;;5053267;28;20041;-85
2023/01/01 05:57:39;;;;;;;7.75;2.50;;;11.80;99.90;;;;;;5051940;28;20029;-85
2023/01/01 06:00:05;;;;;;;7.32;1.75;;;11.80;99.90;;;;;;5035434;28;20044;-85
2023/01/01 06:02:31;;;;;;;8.35;1.58;;;11.80;99.90;;;;;;5051358;28;20033;-85
2023/01/01 06:04:56;;;;;;;8.15;1.67;;;11.80;99.90;;;;;;5052061;28;20033;-84
2023/01/01 06:07:22;;;;;;;7.88;1.90;;;11.80;99.90;;;;;;5051537;28;20052;-85
2023/01/01 06:09:47;;;;;;;7.40;2.00;;;11.80;99.90;;;;;;5052195;28;20047;-84
2023/01/01 06:12:13;;;;;;;6.95;1.73;;;11.80;99.90;;;;;;5052046;28;20076;-85
2023/01/01 06:14:38;;;;;;;11.73;1.67;;;11.80;99.90;;;;;;5036917;28;20557;-85
2023/01/01 06:17:04;;;;;;;6.50;1.70;;;11.80;99.90;;;;;;5035833;28;20047;-85
2023/01/01 06:19:29;;;;;;;6.28;1.50;;;11.70;99.90;;;;;;5044400;28;20048;-85
2023/01/01 06:21:55;;;;;;;5.88;1.52;;;11.70;99.90;;;;;;5048329;28;20385;-85
2023/01/01 06:24:20;;;;;;;8.10;1.40;;;11.70;99.90;;;;;;5026692;28;20038;-84
2023/01/01 06:26:46;;;;;;;6.90;1.58;;;11.70;99.90;;;;;;5051813;28;20111;-84
2023/01/01 06:29:12;;;;;;;7.18;1.60;;;11.80;99.90;;;;;;5044086;28;20495;-85
2023/01/01 06:31:37;;;;;;;7.65;1.83;;;11.70;99.90;;;;;;5044927;28;20124;-84
2023/01/01 06:34:03;;;;;;;7.05;1.67;;;11.80;99.90;;;;;;5052883;28;20562;-84
2023/01/01 06:36:28;;;;;;;4.68;1.42;;;11.70;99.90;;;;;;5050410;28;20487;-85
2023/01/01 06:38:55;;;;;;;9.60;1.92;;;11.70;99.90;;;;;;5051502;28;20037;-84
2023/01/01 06:41:23;;;;;;;7.32;1.60;;;11.70;99.90;;;;;;5046873;28;20103;-84
2023/01/01 06:43:49;;;;;;;8.98;1.67;;;11.70;99.90;;;;;;5048680;28;20090;-83
2023/01/01 06:46:20;;;;;;;10.55;1.90;;;11.60;99.90;;;;;;5052912;28;20048;-82
2023/01/01 06:48:51;;;;;;;6.30;1.23;;;11.70;99.90;;;;;;5035781;28;20037;-84
2023/01/01 06:51:22;;;;;;;10.95;1.40;;;11.70;99.90;;;;;;5050649;28;20052;-84
2023/01/01 06:53:48;;;;;;;6.57;1.38;;;11.70;99.90;;;;;;5052803;28;20063;-84
2023/01/01 06:56:14;;;;;;;6.50;1.58;;;11.70;99.90;;;;;;5051285;28;20566;-84
2023/01/01 06:58:40;;;;;;;6.50;1.58;;;11.70;99.90;;;;;;5050689;28;20068;-84
2023/01/01 07:01:17;;;;;;;10.02;1.50;;;11.60;99.90;;;;;;5051356;28;20041;-83
2023/01/01 07:03:48;;;;;;;7.05;1.40;;;11.60;99.90;;;;;;5050657;28;20033;-85
2023/01/01 07:06:13;;;;;;;10.05;1.60;;;11.50;99.90;;;;;;5035104;28;20049;-84
2023/01/01 07:08:39;;;;;;;10.35;2.10;;;11.50;99.90;;;;;;5051622;28;20120;-85
2023/01/01 07:11:04;;;;;;;10.95;1.50;;;11.50;99.90;;;;;;5052135;28;20041;-84
2023/01/01 07:13:30;;;;;;;12.45;2.00;;;11.40;99.90;;;;;;5051189;28;20037;-84
2023/01/01 07:15:56;;;;;;;11.65;2.15;;;11.40;99.90;;;;;;5032832;28;20036;-83
2023/01/01 07:18:23;;;;;;;6.75;1.98;;;11.40;99.90;;;;;;5033701;28;20468;-84
2023/01/01 07:20:58;;;;;;;12.05;2.00;;;11.40;99.90;;;;;;5051081;28;20037;-84
2023/01/01 07:23:25;;;;;;;10.25;2.10;;;11.40;99.90;;;;;;5048703;28;20036;-85
2023/01/01 07:25:52;;;;;;;10.07;2.42;;;11.40;99.90;;;;;;5044741;28;20048;-83
2023/01/01 07:28:19;;;;;;;9.15;2.17;;;11.50;99.90;;;;;;5050082;28;20045;-84
2023/01/01 07:30:44;;;;;;;14.40;2.15;;;11.40;99.90;;;;;;5047559;28;20056;-85
2023/01/01 07:33:16;;;;;;;13.63;1.75;;;11.40;99.90;;;;;;5032946;28;20172;-86
2023/01/01 07:35:43;;;;;;;9.70;2.28;;;11.40;99.90;;;;;;5050366;28;20032;-84
2023/01/01 07:38:09;;;;;;;13.85;2.60;;;11.40;99.90;;;;;;5030692;28;20044;-86
2023/01/01 07:40:34;;;;;;;15.18;2.08;;;11.30;99.90;;;;;;5050536;28;20041;-84
2023/01/01 07:43:00;;;;;;;10.13;1.92;;;11.30;99.90;;;;;;5048327;28;20033;-84
2023/01/01 07:45:26;;;;;;;14.93;2.35;;;11.20;99.90;;;;;;5023562;28;20447;-85
2023/01/01 07:47:56;;;;;;;19.00;2.58;;;11.20;99.90;;;;;;5040340;28;20063;-85
2023/01/01 07:50:24;;;;;;;12.25;2.22;;;11.20;99.90;;;;;;5030298;28;20044;-85
2023/01/01 07:52:49;;;;;;;14.10;2.50;;;11.20;99.90;;;;;;5038402;28;20079;-85
2023/01/01 07:55:17;;;;;;;16.90;2.63;;;11.20;99.90;;;;;;5045112;28;20442;-85
2023/01/01 07:57:44;;;;;;;14.00;2.78;;;11.20;99.90;;;;;;5034144;28;20033;-85
2023/01/01 08:00:11;;;;;;;13.40;2.42;;;11.10;99.90;;;;;;5056221;28;20033;-85
2023/01/01 08:02:37;;;;;;;18.25;2.90;;;11.20;99.90;;;;;;5017729;28;20045;-85
2023/01/01 08:05:03;;;;;;;12.70;2.53;;;11.10;99.90;;;;;;5027131;28;20544;-85
2023/01/01 08:07:29;;;;;;;10.50;1.77;;;11.20;99.90;;;;;;5048391;28;20025;-84
2023/01/01 08:09:54;;;;;;;12.90;3.03;;;11.10;99.90;;;;;;5032683;28;20033;-86
2023/01/01 08:12:20;;;;;;;12.85;2.83;;;11.10;99.90;;;;;;5033840;28;20068;-85
2023/01/01 08:14:45;;;;;;;15.18;2.80;;;11.10;99.90;;;;;;5039023;28;20044;-86
2023/01/01 08:17:11;;;;;;;15.35;2.83;;;11.10;99.90;;;;;;5048296;28;20052;-86
2023/01/01 08:19:36;;;;;;;18.45;3.05;;;11.10;99.90;;;;;;5043216;28;20132;-85
2023/01/01 08:22:02;;;;;;;17.80;2.63;;;11.10;99.90;;;;;;5045692;28;20048;-86
2023/01/01 08:24:27;;;;;;;17.95;3.63;;;11.10;99.90;;;;;;5033514;28;20090;-85
2023/01/01 08:26:53;;;;;;;16.33;2.92;;;11.10;99.90;;;;;;5047200;28;20047;-85
2023/01/01 08:29:19;;;;;;;15.18;2.78;;;11.10;99.90;;;;;;5048263;28;20037;-85
2023/01/01 08:31:44;;;;;;;16.90;3.10;;;11.10;99.90;;;;;;5032937;28;20036;-84
2023/01/01 08:34:10;;;;;;;17.67;3.25;;;11.10;99.90;;;;;;5047298;28;20513;-84
2023/01/01 08:36:36;;;;;;;18.70;2.72;;;11.10;99.90;;;;;;5031152;28;20048;-84
2023/01/01 08:39:02;;;;;;;15.15;2.70;;;11.10;99.90;;;;;;5050009;28;20043;-85
2023/01/01 08:41:28;;;;;;;18.70;2.75;;;11.10;99.90;;;;;;5048576;28;20406;-86
2023/01/01 08:43:53;;;;;;;19.17;3.70;;;11.10;99.90;;;;;;5045011;28;20062;-84
2023/01/01 08:46:19;;;;;;;14.85;2.85;;;11.10;99.90;;;;;;5032756;28;20061;-84
2023/01/01 08:48:44;;;;;;;13.52;2.75;;;11.10;99.90;;;;;;5049792;28;20491;-84
2023/01/01 08:51:10;;;;;;;12.05;2.33;;;11.10;99.90;;;;;;5049496;28;20504;-84
2023/01/01 08:53:36;;;;;;;16.58;3.15;;;11.10;99.90;;;;;;5028790;28;20090;-83
2023/01/01 08:56:07;;;;;;;16.08;2.97;;;11.10;99.90;;;;;;5043021;28;20123;-84
2023/01/01 08:58:34;;;;;;;18.25;2.83;;;11.10;99.90;;;;;;5048348;28;20055;-84
2023/01/01 09:01:00;;;;;;;14.75;2.55;;;11.10;99.90;;;;;;5035266;28;20064;-85
2023/01/01 09:03:26;;;;;;;14.88;4.03;;;11.10;99.90;;;;;;5046997;28;20057;-84
2023/01/01 09:05:52;;;;;;;14.13;2.47;;;11.10;99.90;;;;;;5040237;28;20030;-84
2023/01/01 09:08:18;;;;;;;16.45;3.33;;;11.10;99.90;;;;;;5029101;28;20033;-85
2023/01/01 09:10:44;;;;;;;14.75;2.53;;;11.10;99.90;;;;;;5039819;28;20041;-85
2023/01/01 09:13:11;;;;;;;19.00;2.92;;;11.10;99.90;;;;;;5025769;28;20041;-85
2023/01/01 09:15:37;;;;;;;16.08;3.25;;;11.10;99.90;;;;;;5034231;28;20041;-84
2023/01/01 09:18:03;;;;;;;18.63;3.58;;;11.10;99.90;;;;;;5040348;28;20037;-84
2023/01/01 09:20:29;;;;;;;17.05;2.70;;;11.20;99.90;;;;;;5035452;28;20041;-84
2023/01/01 09:22:54;;;;;;;19.70;3.67;;;11.20;99.90;;;;;;5053122;28;20063;-85
2023/01/01 09:25:20;;;;;;;15.48;3.05;;;11.20;99.90;;;;;;5049821;28;20100;-85
2023/01/01 09:27:45;;;;;;;16.67;3.03;;;11.20;99.90;;;;;;5032778;28;20029;-85
2023/01/01 09:30:11;;;;;;;14.27;2.63;;;11.20;99.90;;;;;;5044995;28;20039;-82
2023/01/01 09:32:37;;;;;;;17.30;3.20;;;11.20;99.90;;;;;;5054022;28;20127;-84
2023/01/01 09:35:03;;;;;;;17.58;4.10;;;11.20;99.90;;;;;;5037935;28;20104;-83
2023/01/01 09:37:30;;;;;;;20.50;3.35;;;11.20;99.90;;;;;;5054012;28;20391;-83
2023/01/01 09:39:55;;;;;;;21.63;3.10;;;11.20;99.90;;;;;;5053261;28;20051;-84
2023/01/01 09:42:32;;;;;;;16.58;2.97;;;11.20;99.90;;;;;;5054322;28;20045;-84
2023/01/01 09:45:33;;;;;;;20.10;3.20;;;11.20;99.90;;;;;;5054108;28;20040;-84
2023/01/01 09:48:05;;;;;;;19.75;3.63;;;11.20;99.90;;;;;;5036594;28;20051;-85
2023/01/01 09:50:39;;;;;;;18.52;2.80;;;11.20;99.90;;;;;;5054537;28;20440;-83
2023/01/01 09:53:20;;;;;;;21.23;3.35;;;11.30;99.90;;;;;;5054336;28;20052;-84
2023/01/01 09:55:51;;;;;;;20.95;3.08;;;11.30;99.90;;;;;;5053350;28;20174;-84
2023/01/01 09:58:30;;;;;;;17.20;2.90;;;11.30;99.90;;;;;;5054217;28;20041;-84
2023/01/01 10:01:05;;;;;;;18.95;3.22;;;11.30;99.90;;;;;;5053240;28;20049;-84
2023/01/01 10:03:52;;;;;;;18.85;3.35;;;11.30;99.90;;;;;;5037005;28;20044;-85
2023/01/01 10:06:25;;;;;;;12.60;2.70;;;11.40;99.90;;;;;;5037130;28;20087;-86
2023/01/01 10:09:15;;;;;;;18.67;2.97;;;11.40;99.90;;;;;;5037281;28;20594;-84
2023/01/01 10:12:24;;;;;;;19.77;3.15;;;11.40;99.90;;;;;;5036983;28;20499;-84
2023/01/01 10:14:54;;;;;;;20.75;3.35;;;11.40;99.90;;;;;;5040642;28;20049;-83
2023/01/01 10:17:42;;;;;;;19.65;3.60;;;11.50;99.90;;;;;;5036634;28;20060;-85
2023/01/01 10:20:26;;;;;;;15.63;2.72;;;11.50;99.90;;;;;;5053981;28;20517;-85
2023/01/01 10:22:58;;;;;;;18.92;2.83;;;11.50;99.90;;;;;;5053360;28;20041;-84
2023/01/01 10:25:26;;;;;;;16.23;2.85;;;11.50;99.90;;;;;;5053648;28;20033;-83
2023/01/01 10:28:01;;;;;;;14.13;2.70;;;11.60;99.90;;;;;;5053846;28;20455;-84
2023/01/01 10:30:28;;;;;;;16.08;2.60;;;11.60;99.90;;;;;;5037440;28;20391;-83
2023/01/01 10:32:55;;;;;;;18.05;2.80;;;11.60;99.90;;;;;;5053618;28;20483;-85
2023/01/01 10:35:36;;;;;;;14.38;2.10;;;11.60;99.90;;;;;;5036654;28;20441;-85
2023/01/01 10:38:03;;;;;;;17.63;2.88;;;11.60;99.90;;;;;;5053379;28;20368;-85
2023/01/01 10:40:30;;;;;;;23.27;3.85;;;11.60;99.90;;;;;;5053057;28;20486;-86
2023/01/01 10:42:58;;;;;;;14.40;3.15;;;11.50;99.90;;;;;;5052987;28;20040;-84
2023/01/01 10:45:40;;;;;;;17.42;3.20;;;11.50;99.90;;;;;;5053223;28;20037;-84
2023/01/01 10:48:21;;;;;;;17.10;2.92;;;11.40;99.90;;;;;;5036402;28;20138;-84
2023/01/01 10:50:50;;;;;;;16.88;2.70;;;11.40;99.90;;;;;;5036312;28;20098;-84
2023/01/01 10:53:24;;;;;;;17.58;2.90;;;11.40;99.90;;;;;;5052995;28;20396;-84
2023/01/01 10:55:58;;;;;;;15.77;2.90;;;11.40;99.90;;;;;;5051953;28;20040;-85
2023/01/01 10:58:39;;;;;;;13.90;2.40;;;11.40;99.90;;;;;;5033350;28;20037;-86
2023/01/01 11:01:08;;;;;;;14.90;3.20;;;11.40;99.90;;;;;;5050418;28;20171;-86
2023/01/01 11:03:34;;;;;;;17.67;2.58;;;11.40;99.90;;;;;;5044798;28;20483;-84
2023/01/01 11:06:30;;;;;;;13.90;2.38;;;11.40;99.90;;;;;;5048320;28;20135;-85
2023/01/01 11:08:58;;;;;;;16.20;2.83;;;11.40;99.90;;;;;;5029044;28;20049;-85
2023/01/01 11:12:01;;;;;;;12.80;2.60;;;11.40;99.90;;;;;;5031394;28;20076;-83
2023/01/01 11:14:37;;;;;;;11.10;2.17;;;11.40;99.90;;;;;;5037989;28;20501;-85
2023/01/01 11:17:04;;;;;;;11.68;2.47;;;11.40;99.90;;;;;;5046716;28;20033;-83
2023/01/01 11:19:38;;;;;;;10.80;2.35;;;11.40;99.90;;;;;;5043655;28;20051;-84
2023/01/01 11:22:05;;;;;;;15.43;2.50;;;11.50;99.90;;;;;;5050771;28;20036;-85
2023/01/01 11:24:32;;;;;;;15.32;2.10;;;11.50;99.90;;;;;;5041596;28;20033;-84
2023/01/01 11:27:23;;;;;;;14.85;2.20;;;11.50;99.90;;;;;;5049527;28;20555;-86
2023/01/01 11:29:54;;;;;;;13.85;2.65;;;11.60;99.90;;;;;;5029616;28;20485;-85
2023/01/01 11:32:32;;;;;;;11.07;1.92;;;11.60;99.90;;;;;;5045579;28;20039;-84
2023/01/01 11:35:01;;;;;;;14.63;2.78;;;11.60;99.90;;;;;;5032830;28;20049;-83
2023/01/01 11:37:31;;;;;;;10.25;2.03;;;11.50;99.90;;;;;;5029767;28;20051;-85
2023/01/01 11:39:57;;;;;;;14.57;2.35;;;11.50;99.90;;;;;;5034040;28;20044;-85
2023/01/01 11:42:29;;;;;;;13.40;2.17;;;11.50;99.90;;;;;;5023911;28;20037;-84
2023/01/01 11:44:57;;;;;;;9.82;2.10;;;11.50;99.90;;;;;;5051756;28;20037;-85
2023/01/01 11:47:31;;;;;;;14.88;2.17;;;11.50;99.90;;;;;;5050850;28;20059;-83
2023/01/01 11:50:25;;;;;;;7.78;1.88;;;11.50;99.90;;;;;;5051791;28;20037;-84
2023/01/01 11:52:53;;;;;;;12.85;2.35;;;11.50;99.90;;;;;;5050788;28;20040;-84
2023/01/01 11:55:37;;;;;;;17.38;2.15;;;11.50;99.90;;;;;;5051488;28;20483;-84
2023/01/01 11:58:13;;;;;;;14.98;2.22;;;11.60;99.90;;;;;;5047021;28;20435;-85
2023/01/01 12:00:38;;;;;;;10.88;2.22;;;11.60;99.90;;;;;;5047633;28;20494;-84
2023/01/01 12:03:11;;;;;;;14.38;2.30;;;11.70;99.90;;;;;;5050250;28;20051;-84
2023/01/01 12:06:18;;;;;;;10.90;2.08;;;11.70;99.90;;;;;;5050869;28;20037;-84
2023/01/01 12:09:04;;;;;;;13.60;2.60;;;11.80;99.90;;;;;;5034461;28;20037;-85
2023/01/01 12:11:56;;;;;;;10.38;2.25;;;11.90;99.90;;;;;;5034137;28;20040;-83
2023/01/01 12:15:00;;;;;;;13.55;2.20;;;11.90;99.90;;;;;;5050857;28;20037;-86
2023/01/01 12:17:32;;;;;;;12.73;2.07;;;12.00;99.90;;;;;;5034766;28;20406;-84
2023/01/01 12:20:13;;;;;;;14.85;2.55;;;12.00;99.90;;;;;;5051042;28;20040;-85
2023/01/01 12:22:40;;;;;;;14.05;2.55;;;11.90;99.90;;;;;;5050504;28;20112;-84
2023/01/01 12:25:12;;;;;;;16.73;2.67;;;12.00;99.90;;;;;;5034308;28;20041;-83
2023/01/01 12:27:54;;;;;;;10.80;2.20;;;11.90;99.90;;;;;;5050264;28;20041;-84
2023/01/01 12:30:24;;;;;;;13.75;2.42;;;12.00;99.90;;;;;;5050848;28;20032;-85
2023/01/01 12:33:03;;;;;;;12.13;2.17;;;11.90;99.90;;;;;;5033412;28;20121;-83
2023/01/01 12:36:13;;;;;;;11.68;2.20;;;12.00;99.90;;;;;;5049466;28;20052;-84
2023/01/01 12:39:37;;;;;;;14.13;2.40;;;12.00;99.90;;;;;;5047105;28;20470;-84
2023/01/01 12:42:32;;;;;;;10.00;2.42;;;12.10;99.90;;;;;;5020976;28;20037;-85
2023/01/01 12:45:13;;;;;;;11.95;2.20;;;12.10;99.90;;;;;;5050242;28;20468;-84
2023/01/01 12:48:26;;;;;;;14.55;2.50;;;12.10;99.90;;;;;;5048445;28;20040;-84
2023/01/01 12:51:06;;;;;;;11.20;1.92;;;12.00;99.90;;;;;;5004248;28;20038;-83
2023/01/01 12:54:00;;;;;;;12.27;2.83;;;11.90;99.90;;;;;;5036634;28;20048;-84
2023/01/01 12:56:32;;;;;;;8.38;2.15;;;12.00;99.90;;;;;;5048743;28;20191;-85
2023/01/01 12:59:02;;;;;;;12.57;2.00;;;12.00;99.90;;;;;;5033363;28;20055;-85